sensor_id;sensor_type;location;lat;lon;timestamp;P1;durP1;ratioP1;P2;durP2;ratioP2
42294;SDS011;27947;47.556;18.718;2024-03-23T00:54:54;26.92;;;16.50;;
42294;SDS011;27947;47.556;18.718;2024-03-23T00:57:19;27.98;;;16.05;;
42294;SDS011;27947;47.556;18.718;2024-03-23T00:59:44;26.35;;;16.65;;
42294;SDS011;27947;47.556;18.718;2024-03-23T01:02:10;25.67;;;16.05;;
42294;SDS011;27947;47.556;18.718;2024-03-23T01:04:35;28.83;;;16.42;;
42294;SDS011;27947;47.556;18.718;2024-03-23T01:07:00;29.00;;;15.43;;
42294;SDS011;27947;47.556;18.718;2024-03-23T01:09:25;26.80;;;14.93;;
42294;SDS011;27947;47.556;18.718;2024-03-23T01:11:51;24.40;;;15.23;;
42294;SDS011;27947;47.556;18.718;2024-03-23T01:14:16;26.25;;;15.88;;
42294;SDS011;27947;47.556;18.718;2024-03-23T01:16:41;22.80;;;14.45;;
42294;SDS011;27947;47.556;18.718;2024-03-23T01:19:06;25.58;;;15.60;;
42294;SDS011;27947;47.556;18.718;2024-03-23T01:21:32;25.45;;;14.98;;
42294;SDS011;27947;47.556;18.718;2024-03-23T01:23:58;23.52;;;14.50;;
42294;SDS011;27947;47.556;18.718;2024-03-23T01:26:23;27.33;;;15.40;;
42294;SDS011;27947;47.556;18.718;2024-03-23T01:28:48;27.08;;;14.48;;
42294;SDS011;27947;47.556;18.718;2024-03-23T01:31:13;25.88;;;15.10;;
42294;SDS011;27947;47.556;18.718;2024-03-23T01:33:39;22.58;;;14.75;;
42294;SDS011;27947;47.556;18.718;2024-03-23T01:36:04;26.85;;;15.07;;
42294;SDS011;27947;47.556;18.718;2024-03-23T01:38:30;25.17;;;14.68;;
42294;SDS011;27947;47.556;18.718;2024-03-23T01:40:58;28.52;;;14.30;;
42294;SDS011;27947;47.556;18.718;2024-03-23T01:43:23;24.40;;;14.15;;
42294;SDS011;27947;47.556;18.718;2024-03-23T01:45:48;22.17;;;13.73;;
42294;SDS011;27947;47.556;18.718;2024-03-23T01:48:14;22.00;;;13.57;;
42294;SDS011;27947;47.556;18.718;2024-03-23T01:50:39;24.25;;;13.77;;
42294;SDS011;27947;47.556;18.718;2024-03-23T01:53:04;22.45;;;12.77;;
42294;SDS011;27947;47.556;18.718;2024-03-23T01:55:32;23.52;;;12.68;;
42294;SDS011;27947;47.556;18.718;2024-03-23T01:57:57;24.17;;;13.30;;
42294;SDS011;27947;47.556;18.718;2024-03-23T02:00:22;22.95;;;13.70;;
42294;SDS011;27947;47.556;18.718;2024-03-23T02:02:48;22.77;;;13.82;;
42294;SDS011;27947;47.556;18.718;2024-03-23T02:05:13;23.08;;;13.38;;
42294;SDS011;27947;47.556;18.718;2024-03-23T02:07:39;24.75;;;13.63;;
42294;SDS011;27947;47.556;18.718;2024-03-23T02:10:08;24.60;;;14.35;;
42294;SDS011;27947;47.556;18.718;2024-03-23T02:12:35;25.33;;;13.52;;
42294;SDS011;27947;47.556;18.718;2024-03-23T02:15:00;25.55;;;14.00;;
42294;SDS011;27947;47.556;18.718;2024-03-23T02:17:25;24.50;;;13.50;;
42294;SDS011;27947;47.556;18.718;2024-03-23T02:19:50;23.92;;;13.18;;
42294;SDS011;27947;47.556;18.718;2024-03-23T02:22:16;26.58;;;14.07;;
42294;SDS011;27947;47.556;18.718;2024-03-23T02:24:41;25.00;;;15.00;;
42294;SDS011;27947;47.556;18.718;2024-03-23T02:27:07;26.08;;;14.40;;
42294;SDS011;27947;47.556;18.718;2024-03-23T02:29:33;23.55;;;14.35;;
42294;SDS011;27947;47.556;18.718;2024-03-23T02:31:58;28.05;;;16.77;;
42294;SDS011;27947;47.556;18.718;2024-03-23T02:34:24;26.42;;;15.30;;
42294;SDS011;27947;47.556;18.718;2024-03-23T02:36:49;25.60;;;15.48;;
42294;SDS011;27947;47.556;18.718;2024-03-23T02:39:14;25.90;;;15.98;;
42294;SDS011;27947;47.556;18.718;2024-03-23T02:41:40;27.75;;;16.35;;
42294;SDS011;27947;47.556;18.718;2024-03-23T02:44:05;29.33;;;16.48;;
42294;SDS011;27947;47.556;18.718;2024-03-23T02:46:30;26.58;;;16.58;;
42294;SDS011;27947;47.556;18.718;2024-03-23T02:48:55;26.63;;;15.32;;
42294;SDS011;27947;47.556;18.718;2024-03-23T02:51:21;29.15;;;15.98;;
42294;SDS011;27947;47.556;18.718;2024-03-23T02:53:47;27.75;;;15.70;;
42294;SDS011;27947;47.556;18.718;2024-03-23T02:56:12;27.48;;;16.08;;
42294;SDS011;27947;47.556;18.718;2024-03-23T02:58:41;25.58;;;15.15;;
42294;SDS011;27947;47.556;18.718;2024-03-23T03:01:06;29.52;;;15.82;;
42294;SDS011;27947;47.556;18.718;2024-03-23T03:03:31;24.50;;;15.73;;
42294;SDS011;27947;47.556;18.718;2024-03-23T03:05:56;25.10;;;16.25;;
42294;SDS011;27947;47.556;18.718;2024-03-23T03:08:22;26.58;;;15.60;;
42294;SDS011;27947;47.556;18.718;2024-03-23T03:10:47;27.17;;;15.95;;
42294;SDS011;27947;47.556;18.718;2024-03-23T03:13:12;24.83;;;14.57;;
42294;SDS011;27947;47.556;18.718;2024-03-23T03:15:37;26.85;;;15.55;;
42294;SDS011;27947;47.556;18.718;2024-03-23T03:18:04;25.08;;;15.82;;
42294;SDS011;27947;47.556;18.718;2024-03-23T03:20:30;28.35;;;15.25;;
42294;SDS011;27947;47.556;18.718;2024-03-23T03:22:55;32.47;;;16.27;;
42294;SDS011;27947;47.556;18.718;2024-03-23T03:25:20;27.42;;;15.77;;
42294;SDS011;27947;47.556;18.718;2024-03-23T03:27:45;24.75;;;15.75;;
42294;SDS011;27947;47.556;18.718;2024-03-23T03:30:11;22.98;;;15.30;;
42294;SDS011;27947;47.556;18.718;2024-03-23T03:32:36;26.15;;;16.05;;
42294;SDS011;27947;47.556;18.718;2024-03-23T03:35:02;26.08;;;16.33;;
42294;SDS011;27947;47.556;18.718;2024-03-23T03:37:27;23.95;;;15.48;;
42294;SDS011;27947;47.556;18.718;2024-03-23T03:39:52;26.75;;;15.80;;
42294;SDS011;27947;47.556;18.718;2024-03-23T03:42:17;24.65;;;15.07;;
42294;SDS011;27947;47.556;18.718;2024-03-23T03:44:43;24.90;;;15.05;;
42294;SDS011;27947;47.556;18.718;2024-03-23T03:47:08;25.10;;;14.88;;
42294;SDS011;27947;47.556;18.718;2024-03-23T03:49:33;24.20;;;15.82;;
42294;SDS011;27947;47.556;18.718;2024-03-23T03:51:58;24.17;;;15.77;;
42294;SDS011;27947;47.556;18.718;2024-03-23T03:54:26;23.60;;;14.93;;
42294;SDS011;27947;47.556;18.718;2024-03-23T03:56:51;26.20;;;15.13;;
42294;SDS011;27947;47.556;18.718;2024-03-23T03:59:17;28.85;;;16.02;;
42294;SDS011;27947;47.556;18.718;2024-03-23T04:01:42;26.30;;;16.63;;
42294;SDS011;27947;47.556;18.718;2024-03-23T04:04:08;29.08;;;17.00;;
42294;SDS011;27947;47.556;18.718;2024-03-23T04:06:33;26.40;;;16.33;;
42294;SDS011;27947;47.556;18.718;2024-03-23T04:08:58;27.13;;;17.35;;
42294;SDS011;27947;47.556;18.718;2024-03-23T04:11:23;27.63;;;16.92;;
42294;SDS011;27947;47.556;18.718;2024-03-23T04:13:49;28.88;;;17.40;;
42294;SDS011;27947;47.556;18.718;2024-03-23T04:16:24;24.95;;;15.98;;
42294;SDS011;27947;47.556;18.718;2024-03-23T04:18:49;26.10;;;16.85;;
42294;SDS011;27947;47.556;18.718;2024-03-23T04:21:14;29.90;;;17.70;;
42294;SDS011;27947;47.556;18.718;2024-03-23T04:23:40;25.70;;;16.58;;
42294;SDS011;27947;47.556;18.718;2024-03-23T04:26:05;25.38;;;15.52;;
42294;SDS011;27947;47.556;18.718;2024-03-23T04:28:30;24.70;;;16.27;;
42294;SDS011;27947;47.556;18.718;2024-03-23T04:30:56;27.10;;;16.08;;
42294;SDS011;27947;47.556;18.718;2024-03-23T04:33:21;23.55;;;15.70;;
42294;SDS011;27947;47.556;18.718;2024-03-23T04:35:48;23.58;;;15.98;;
42294;SDS011;27947;47.556;18.718;2024-03-23T04:38:13;26.15;;;15.77;;
42294;SDS011;27947;47.556;18.718;2024-03-23T04:40:39;23.85;;;14.38;;
42294;SDS011;27947;47.556;18.718;2024-03-23T04:43:04;22.98;;;14.63;;
42294;SDS011;27947;47.556;18.718;2024-03-23T04:45:30;21.75;;;14.52;;
42294;SDS011;27947;47.556;18.718;2024-03-23T04:47:56;24.33;;;14.27;;
42294;SDS011;27947;47.556;18.718;2024-03-23T04:50:22;21.17;;;14.18;;
42294;SDS011;27947;47.556;18.718;2024-03-23T04:52:47;23.30;;;15.15;;
42294;SDS011;27947;47.556;18.718;2024-03-23T04:55:12;23.77;;;13.60;;
42294;SDS011;27947;47.556;18.718;2024-03-23T04:57:39;21.17;;;14.20;;
42294;SDS011;27947;47.556;18.718;2024-03-23T05:00:04;25.48;;;13.77;;
42294;SDS011;27947;47.556;18.718;2024-03-23T05:02:40;21.88;;;14.18;;
42294;SDS011;27947;47.556;18.718;2024-03-23T05:05:05;21.67;;;13.50;;
42294;SDS011;27947;47.556;18.718;2024-03-23T05:07:32;22.30;;;13.38;;
42294;SDS011;27947;47.556;18.718;2024-03-23T05:09:57;19.52;;;13.60;;
42294;SDS011;27947;47.556;18.718;2024-03-23T05:12:22;24.95;;;13.85;;
42294;SDS011;27947;47.556;18.718;2024-03-23T05:14:48;20.63;;;13.02;;
42294;SDS011;27947;47.556;18.718;2024-03-23T05:17:15;24.50;;;13.18;;
42294;SDS011;27947;47.556;18.718;2024-03-23T05:19:40;24.38;;;13.80;;
42294;SDS011;27947;47.556;18.718;2024-03-23T05:22:05;20.67;;;13.35;;
42294;SDS011;27947;47.556;18.718;2024-03-23T05:24:31;19.58;;;13.05;;
42294;SDS011;27947;47.556;18.718;2024-03-23T05:26:56;25.17;;;14.23;;
42294;SDS011;27947;47.556;18.718;2024-03-23T05:29:24;22.35;;;13.80;;
42294;SDS011;27947;47.556;18.718;2024-03-23T05:31:50;23.60;;;14.63;;
42294;SDS011;27947;47.556;18.718;2024-03-23T05:34:16;26.13;;;14.20;;
42294;SDS011;27947;47.556;18.718;2024-03-23T05:36:42;43.08;;;15.20;;
42294;SDS011;27947;47.556;18.718;2024-03-23T05:39:08;24.23;;;14.68;;
42294;SDS011;27947;47.556;18.718;2024-03-23T05:41:33;24.90;;;14.52;;
42294;SDS011;27947;47.556;18.718;2024-03-23T05:44:01;25.67;;;14.75;;
42294;SDS011;27947;47.556;18.718;2024-03-23T05:46:26;22.73;;;13.98;;
42294;SDS011;27947;47.556;18.718;2024-03-23T05:48:51;23.80;;;14.32;;
42294;SDS011;27947;47.556;18.718;2024-03-23T05:51:25;26.25;;;15.48;;
42294;SDS011;27947;47.556;18.718;2024-03-23T05:53:50;24.17;;;15.13;;
42294;SDS011;27947;47.556;18.718;2024-03-23T05:56:19;21.95;;;13.70;;
42294;SDS011;27947;47.556;18.718;2024-03-23T05:58:44;23.70;;;14.70;;
42294;SDS011;27947;47.556;18.718;2024-03-23T06:01:09;24.40;;;15.15;;
42294;SDS011;27947;47.556;18.718;2024-03-23T06:03:35;22.40;;;13.93;;
42294;SDS011;27947;47.556;18.718;2024-03-23T06:06:00;24.55;;;14.50;;
42294;SDS011;27947;47.556;18.718;2024-03-23T06:08:25;21.95;;;14.23;;
42294;SDS011;27947;47.556;18.718;2024-03-23T06:10:51;20.23;;;13.20;;
42294;SDS011;27947;47.556;18.718;2024-03-23T06:13:16;22.70;;;14.48;;
42294;SDS011;27947;47.556;18.718;2024-03-23T06:15:42;19.30;;;13.70;;
42294;SDS011;27947;47.556;18.718;2024-03-23T06:18:08;24.33;;;13.93;;
42294;SDS011;27947;47.556;18.718;2024-03-23T06:20:33;22.05;;;14.15;;
42294;SDS011;27947;47.556;18.718;2024-03-23T06:23:00;21.50;;;13.60;;
42294;SDS011;27947;47.556;18.718;2024-03-23T06:25:25;20.70;;;13.38;;
42294;SDS011;27947;47.556;18.718;2024-03-23T06:27:50;22.73;;;13.27;;
42294;SDS011;27947;47.556;18.718;2024-03-23T06:30:15;21.83;;;14.82;;
42294;SDS011;27947;47.556;18.718;2024-03-23T06:32:41;22.35;;;13.68;;
42294;SDS011;27947;47.556;18.718;2024-03-23T06:35:06;19.73;;;12.88;;
42294;SDS011;27947;47.556;18.718;2024-03-23T06:37:33;20.92;;;13.70;;
42294;SDS011;27947;47.556;18.718;2024-03-23T06:39:59;24.00;;;14.63;;
42294;SDS011;27947;47.556;18.718;2024-03-23T06:42:24;21.48;;;14.35;;
42294;SDS011;27947;47.556;18.718;2024-03-23T06:44:49;23.65;;;14.02;;
42294;SDS011;27947;47.556;18.718;2024-03-23T06:47:14;21.08;;;14.32;;
42294;SDS011;27947;47.556;18.718;2024-03-23T06:49:40;20.50;;;14.50;;
42294;SDS011;27947;47.556;18.718;2024-03-23T06:52:05;24.85;;;14.02;;
42294;SDS011;27947;47.556;18.718;2024-03-23T06:54:30;21.77;;;13.98;;
42294;SDS011;27947;47.556;18.718;2024-03-23T06:56:55;21.92;;;14.07;;
42294;SDS011;27947;47.556;18.718;2024-03-23T06:59:21;23.13;;;13.98;;
42294;SDS011;27947;47.556;18.718;2024-03-23T07:01:46;20.58;;;14.00;;
42294;SDS011;27947;47.556;18.718;2024-03-23T07:04:11;24.30;;;15.18;;
42294;SDS011;27947;47.556;18.718;2024-03-23T07:06:43;21.50;;;14.68;;
42294;SDS011;27947;47.556;18.718;2024-03-23T07:09:09;25.92;;;14.07;;
42294;SDS011;27947;47.556;18.718;2024-03-23T07:11:34;22.55;;;14.32;;
42294;SDS011;27947;47.556;18.718;2024-03-23T07:13:59;21.85;;;14.90;;
42294;SDS011;27947;47.556;18.718;2024-03-23T07:16:26;23.95;;;14.45;;
42294;SDS011;27947;47.556;18.718;2024-03-23T07:18:51;20.40;;;14.00;;
42294;SDS011;27947;47.556;18.718;2024-03-23T07:21:17;21.73;;;14.48;;
42294;SDS011;27947;47.556;18.718;2024-03-23T07:23:42;23.88;;;15.98;;
42294;SDS011;27947;47.556;18.718;2024-03-23T07:26:10;26.08;;;15.30;;
42294;SDS011;27947;47.556;18.718;2024-03-23T07:28:35;21.75;;;15.18;;
42294;SDS011;27947;47.556;18.718;2024-03-23T07:33:26;26.20;;;15.07;;
42294;SDS011;27947;47.556;18.718;2024-03-23T07:35:51;20.55;;;14.50;;
42294;SDS011;27947;47.556;18.718;2024-03-23T07:38:17;24.08;;;15.32;;
42294;SDS011;27947;47.556;18.718;2024-03-23T07:40:42;24.73;;;15.65;;
42294;SDS011;27947;47.556;18.718;2024-03-23T07:43:07;26.98;;;15.65;;
42294;SDS011;27947;47.556;18.718;2024-03-23T07:45:32;25.08;;;16.88;;
42294;SDS011;27947;47.556;18.718;2024-03-23T07:47:57;25.50;;;15.48;;
42294;SDS011;27947;47.556;18.718;2024-03-23T07:50:23;25.52;;;16.60;;
42294;SDS011;27947;47.556;18.718;2024-03-23T07:52:48;26.30;;;16.33;;
42294;SDS011;27947;47.556;18.718;2024-03-23T07:55:13;23.05;;;16.05;;
42294;SDS011;27947;47.556;18.718;2024-03-23T07:57:38;25.70;;;15.80;;
42294;SDS011;27947;47.556;18.718;2024-03-23T08:00:05;23.88;;;15.88;;
42294;SDS011;27947;47.556;18.718;2024-03-23T08:02:31;29.08;;;16.73;;
42294;SDS011;27947;47.556;18.718;2024-03-23T08:04:56;28.38;;;18.05;;
42294;SDS011;27947;47.556;18.718;2024-03-23T08:07:22;25.92;;;16.25;;
42294;SDS011;27947;47.556;18.718;2024-03-23T08:09:47;25.38;;;16.25;;
42294;SDS011;27947;47.556;18.718;2024-03-23T08:12:12;23.05;;;16.25;;
42294;SDS011;27947;47.556;18.718;2024-03-23T08:14:37;24.98;;;15.63;;
42294;SDS011;27947;47.556;18.718;2024-03-23T08:17:02;24.63;;;15.65;;
42294;SDS011;27947;47.556;18.718;2024-03-23T08:19:28;23.35;;;15.93;;
42294;SDS011;27947;47.556;18.718;2024-03-23T08:21:53;28.55;;;17.20;;
42294;SDS011;27947;47.556;18.718;2024-03-23T08:24:19;25.30;;;16.50;;
42294;SDS011;27947;47.556;18.718;2024-03-23T08:26:44;27.70;;;17.05;;
42294;SDS011;27947;47.556;18.718;2024-03-23T08:29:10;25.52;;;17.50;;
42294;SDS011;27947;47.556;18.718;2024-03-23T08:31:35;26.65;;;17.38;;
42294;SDS011;27947;47.556;18.718;2024-03-23T08:34:00;24.63;;;16.80;;
42294;SDS011;27947;47.556;18.718;2024-03-23T08:36:25;26.17;;;15.52;;
42294;SDS011;27947;47.556;18.718;2024-03-23T08:38:51;22.48;;;14.50;;
42294;SDS011;27947;47.556;18.718;2024-03-23T08:41:18;19.42;;;12.85;;
42294;SDS011;27947;47.556;18.718;2024-03-23T08:43:44;19.23;;;11.52;;
42294;SDS011;27947;47.556;18.718;2024-03-23T08:46:09;16.73;;;11.63;;
42294;SDS011;27947;47.556;18.718;2024-03-23T08:48:36;17.02;;;11.88;;
42294;SDS011;27947;47.556;18.718;2024-03-23T08:51:02;16.27;;;11.15;;
42294;SDS011;27947;47.556;18.718;2024-03-23T08:53:28;14.82;;;10.48;;
42294;SDS011;27947;47.556;18.718;2024-03-23T08:55:54;16.65;;;11.40;;
42294;SDS011;27947;47.556;18.718;2024-03-23T08:58:19;15.77;;;10.30;;
42294;SDS011;27947;47.556;18.718;2024-03-23T09:00:45;14.82;;;10.55;;
42294;SDS011;27947;47.556;18.718;2024-03-23T09:03:10;18.13;;;10.90;;
42294;SDS011;27947;47.556;18.718;2024-03-23T09:05:38;13.10;;;10.10;;
42294;SDS011;27947;47.556;18.718;2024-03-23T09:08:04;17.50;;;10.13;;
42294;SDS011;27947;47.556;18.718;2024-03-23T09:10:29;32.67;;;13.00;;
42294;SDS011;27947;47.556;18.718;2024-03-23T09:12:54;19.45;;;10.35;;
42294;SDS011;27947;47.556;18.718;2024-03-23T09:15:20;13.88;;;9.38;;
42294;SDS011;27947;47.556;18.718;2024-03-23T09:17:45;20.13;;;9.82;;
42294;SDS011;27947;47.556;18.718;2024-03-23T09:20:10;12.57;;;8.73;;
42294;SDS011;27947;47.556;18.718;2024-03-23T09:22:35;14.70;;;8.23;;
42294;SDS011;27947;47.556;18.718;2024-03-23T09:25:01;14.55;;;9.50;;
42294;SDS011;27947;47.556;18.718;2024-03-23T09:27:26;14.65;;;9.02;;
42294;SDS011;27947;47.556;18.718;2024-03-23T09:29:51;17.75;;;9.30;;
42294;SDS011;27947;47.556;18.718;2024-03-23T09:32:16;17.13;;;9.88;;
42294;SDS011;27947;47.556;18.718;2024-03-23T09:34:42;15.60;;;10.02;;
42294;SDS011;27947;47.556;18.718;2024-03-23T09:37:07;13.70;;;9.30;;
42294;SDS011;27947;47.556;18.718;2024-03-23T09:39:32;17.40;;;9.98;;
42294;SDS011;27947;47.556;18.718;2024-03-23T09:41:57;12.80;;;9.80;;
42294;SDS011;27947;47.556;18.718;2024-03-23T09:44:23;18.60;;;10.50;;
42294;SDS011;27947;47.556;18.718;2024-03-23T09:46:49;19.70;;;11.20;;
42294;SDS011;27947;47.556;18.718;2024-03-23T09:49:15;19.38;;;10.00;;
42294;SDS011;27947;47.556;18.718;2024-03-23T09:51:40;29.85;;;9.57;;
42294;SDS011;27947;47.556;18.718;2024-03-23T09:54:05;15.43;;;9.68;;
42294;SDS011;27947;47.556;18.718;2024-03-23T09:56:31;14.48;;;8.77;;
42294;SDS011;27947;47.556;18.718;2024-03-23T09:59:00;13.27;;;8.77;;
42294;SDS011;27947;47.556;18.718;2024-03-23T10:01:25;21.90;;;10.07;;
42294;SDS011;27947;47.556;18.718;2024-03-23T10:03:50;16.52;;;9.55;;
42294;SDS011;27947;47.556;18.718;2024-03-23T10:06:16;16.77;;;9.50;;
42294;SDS011;27947;47.556;18.718;2024-03-23T10:08:46;13.80;;;9.43;;
42294;SDS011;27947;47.556;18.718;2024-03-23T10:11:15;20.20;;;9.93;;
42294;SDS011;27947;47.556;18.718;2024-03-23T10:13:41;13.93;;;9.73;;
42294;SDS011;27947;47.556;18.718;2024-03-23T10:16:07;13.52;;;9.60;;
42294;SDS011;27947;47.556;18.718;2024-03-23T10:18:32;14.95;;;9.68;;
42294;SDS011;27947;47.556;18.718;2024-03-23T10:23:30;14.85;;;9.30;;
42294;SDS011;27947;47.556;18.718;2024-03-23T10:25:55;12.40;;;8.23;;
42294;SDS011;27947;47.556;18.718;2024-03-23T10:28:20;12.10;;;8.43;;
42294;SDS011;27947;47.556;18.718;2024-03-23T10:30:45;10.50;;;7.10;;
42294;SDS011;27947;47.556;18.718;2024-03-23T10:33:11;9.90;;;6.57;;
42294;SDS011;27947;47.556;18.718;2024-03-23T10:35:36;14.32;;;6.50;;
42294;SDS011;27947;47.556;18.718;2024-03-23T10:38:05;11.65;;;6.40;;
42294;SDS011;27947;47.556;18.718;2024-03-23T10:40:31;11.60;;;6.60;;
42294;SDS011;27947;47.556;18.718;2024-03-23T10:42:59;13.82;;;6.70;;
42294;SDS011;27947;47.556;18.718;2024-03-23T10:45:25;22.77;;;7.32;;
42294;SDS011;27947;47.556;18.718;2024-03-23T10:47:50;12.70;;;5.47;;
42294;SDS011;27947;47.556;18.718;2024-03-23T10:50:16;16.35;;;5.68;;
42294;SDS011;27947;47.556;18.718;2024-03-23T10:52:41;14.18;;;6.20;;
42294;SDS011;27947;47.556;18.718;2024-03-23T10:55:10;23.35;;;6.18;;
42294;SDS011;27947;47.556;18.718;2024-03-23T10:57:40;17.90;;;5.78;;
42294;SDS011;27947;47.556;18.718;2024-03-23T11:00:06;10.73;;;5.95;;
42294;SDS011;27947;47.556;18.718;2024-03-23T11:02:32;17.55;;;5.78;;
42294;SDS011;27947;47.556;18.718;2024-03-23T11:04:57;19.13;;;5.25;;
42294;SDS011;27947;47.556;18.718;2024-03-23T11:09:53;15.27;;;5.80;;
42294;SDS011;27947;47.556;18.718;2024-03-23T11:17:22;13.52;;;6.20;;
42294;SDS011;27947;47.556;18.718;2024-03-23T11:19:57;14.40;;;5.95;;
42294;SDS011;27947;47.556;18.718;2024-03-23T11:27:37;8.15;;;5.40;;
42294;SDS011;27947;47.556;18.718;2024-03-23T11:30:35;17.63;;;6.88;;
42294;SDS011;27947;47.556;18.718;2024-03-23T11:32:57;19.65;;;6.20;;
42294;SDS011;27947;47.556;18.718;2024-03-23T11:35:35;8.93;;;5.18;;
42294;SDS011;27947;47.556;18.718;2024-03-23T11:38:07;17.15;;;5.53;;
42294;SDS011;27947;47.556;18.718;2024-03-23T11:40:33;17.27;;;5.75;;
42294;SDS011;27947;47.556;18.718;2024-03-23T11:42:59;11.75;;;5.40;;
42294;SDS011;27947;47.556;18.718;2024-03-23T11:45:25;11.70;;;5.65;;
42294;SDS011;27947;47.556;18.718;2024-03-23T11:48:03;9.90;;;5.57;;
42294;SDS011;27947;47.556;18.718;2024-03-23T11:50:28;8.75;;;5.22;;
42294;SDS011;27947;47.556;18.718;2024-03-23T11:53:05;7.07;;;5.00;;
42294;SDS011;27947;47.556;18.718;2024-03-23T11:55:38;9.13;;;4.90;;
42294;SDS011;27947;47.556;18.718;2024-03-23T11:58:03;12.23;;;5.70;;
42294;SDS011;27947;47.556;18.718;2024-03-23T12:00:28;9.35;;;4.68;;
42294;SDS011;27947;47.556;18.718;2024-03-23T12:02:59;8.32;;;5.18;;
42294;SDS011;27947;47.556;18.718;2024-03-23T12:05:25;7.47;;;4.82;;
42294;SDS011;27947;47.556;18.718;2024-03-23T12:07:51;8.93;;;4.40;;
42294;SDS011;27947;47.556;18.718;2024-03-23T12:10:16;9.73;;;4.55;;
42294;SDS011;27947;47.556;18.718;2024-03-23T12:12:43;8.70;;;4.35;;
42294;SDS011;27947;47.556;18.718;2024-03-23T12:15:09;10.47;;;4.53;;
42294;SDS011;27947;47.556;18.718;2024-03-23T12:17:34;8.00;;;4.40;;
42294;SDS011;27947;47.556;18.718;2024-03-23T12:20:00;9.43;;;4.05;;
42294;SDS011;27947;47.556;18.718;2024-03-23T12:22:26;8.38;;;4.22;;
42294;SDS011;27947;47.556;18.718;2024-03-23T12:24:52;8.55;;;4.57;;
42294;SDS011;27947;47.556;18.718;2024-03-23T12:27:17;7.30;;;4.18;;
42294;SDS011;27947;47.556;18.718;2024-03-23T12:29:42;7.70;;;4.60;;
42294;SDS011;27947;47.556;18.718;2024-03-23T12:32:14;8.60;;;4.88;;
42294;SDS011;27947;47.556;18.718;2024-03-23T12:34:41;11.32;;;4.20;;
42294;SDS011;27947;47.556;18.718;2024-03-23T12:37:06;10.40;;;4.28;;
42294;SDS011;27947;47.556;18.718;2024-03-23T12:39:32;9.05;;;4.78;;
42294;SDS011;27947;47.556;18.718;2024-03-23T12:41:57;8.02;;;4.07;;
42294;SDS011;27947;47.556;18.718;2024-03-23T12:44:22;6.90;;;4.03;;
42294;SDS011;27947;47.556;18.718;2024-03-23T12:46:48;8.18;;;3.80;;
42294;SDS011;27947;47.556;18.718;2024-03-23T12:49:13;9.83;;;4.10;;
42294;SDS011;27947;47.556;18.718;2024-03-23T12:51:38;7.50;;;4.32;;
42294;SDS011;27947;47.556;18.718;2024-03-23T12:54:04;8.95;;;4.00;;
42294;SDS011;27947;47.556;18.718;2024-03-23T12:56:29;6.03;;;3.65;;
42294;SDS011;27947;47.556;18.718;2024-03-23T12:58:54;9.50;;;4.07;;
42294;SDS011;27947;47.556;18.718;2024-03-23T13:01:22;6.22;;;3.83;;
42294;SDS011;27947;47.556;18.718;2024-03-23T13:03:47;7.13;;;3.63;;
42294;SDS011;27947;47.556;18.718;2024-03-23T13:06:12;7.97;;;3.92;;
42294;SDS011;27947;47.556;18.718;2024-03-23T13:08:38;11.95;;;3.90;;
42294;SDS011;27947;47.556;18.718;2024-03-23T13:11:03;8.55;;;3.75;;
42294;SDS011;27947;47.556;18.718;2024-03-23T13:13:29;8.15;;;4.05;;
42294;SDS011;27947;47.556;18.718;2024-03-23T13:15:54;5.97;;;3.15;;
42294;SDS011;27947;47.556;18.718;2024-03-23T13:18:19;5.57;;;3.78;;
42294;SDS011;27947;47.556;18.718;2024-03-23T13:20:45;5.47;;;3.30;;
42294;SDS011;27947;47.556;18.718;2024-03-23T13:23:10;5.68;;;3.53;;
42294;SDS011;27947;47.556;18.718;2024-03-23T13:25:35;6.47;;;3.30;;
42294;SDS011;27947;47.556;18.718;2024-03-23T13:28:02;5.95;;;3.55;;
42294;SDS011;27947;47.556;18.718;2024-03-23T13:30:27;5.80;;;3.63;;
42294;SDS011;27947;47.556;18.718;2024-03-23T13:32:53;9.68;;;4.38;;
42294;SDS011;27947;47.556;18.718;2024-03-23T13:35:18;6.53;;;3.55;;
42294;SDS011;27947;47.556;18.718;2024-03-23T13:37:43;6.95;;;3.53;;
42294;SDS011;27947;47.556;18.718;2024-03-23T13:40:09;6.65;;;3.75;;
42294;SDS011;27947;47.556;18.718;2024-03-23T13:42:34;7.53;;;4.00;;
42294;SDS011;27947;47.556;18.718;2024-03-23T13:44:59;7.57;;;3.85;;
42294;SDS011;27947;47.556;18.718;2024-03-23T13:47:25;8.32;;;3.50;;
42294;SDS011;27947;47.556;18.718;2024-03-23T13:49:50;8.63;;;3.92;;
42294;SDS011;27947;47.556;18.718;2024-03-23T13:52:15;7.43;;;3.70;;
42294;SDS011;27947;47.556;18.718;2024-03-23T13:54:41;5.88;;;3.53;;
42294;SDS011;27947;47.556;18.718;2024-03-23T13:57:11;4.65;;;3.42;;
42294;SDS011;27947;47.556;18.718;2024-03-23T13:59:36;6.45;;;3.30;;
42294;SDS011;27947;47.556;18.718;2024-03-23T14:02:01;7.03;;;3.20;;
42294;SDS011;27947;47.556;18.718;2024-03-23T14:04:26;8.70;;;4.10;;
42294;SDS011;27947;47.556;18.718;2024-03-23T14:06:52;9.15;;;3.55;;
42294;SDS011;27947;47.556;18.718;2024-03-23T14:09:17;10.23;;;3.80;;
42294;SDS011;27947;47.556;18.718;2024-03-23T14:11:47;5.97;;;3.40;;
42294;SDS011;27947;47.556;18.718;2024-03-23T14:14:13;6.60;;;3.90;;
42294;SDS011;27947;47.556;18.718;2024-03-23T14:16:38;8.13;;;4.32;;
42294;SDS011;27947;47.556;18.718;2024-03-23T14:19:03;8.18;;;3.90;;
42294;SDS011;27947;47.556;18.718;2024-03-23T14:21:30;8.68;;;4.20;;
42294;SDS011;27947;47.556;18.718;2024-03-23T14:23:56;4.88;;;3.45;;
42294;SDS011;27947;47.556;18.718;2024-03-23T14:26:21;8.18;;;4.10;;
42294;SDS011;27947;47.556;18.718;2024-03-23T14:28:46;7.40;;;3.25;;
42294;SDS011;27947;47.556;18.718;2024-03-23T14:31:11;5.22;;;3.58;;
42294;SDS011;27947;47.556;18.718;2024-03-23T14:33:37;6.15;;;3.20;;
42294;SDS011;27947;47.556;18.718;2024-03-23T14:36:03;7.65;;;3.17;;
42294;SDS011;27947;47.556;18.718;2024-03-23T14:38:28;7.63;;;3.28;;
42294;SDS011;27947;47.556;18.718;2024-03-23T14:40:57;8.48;;;2.95;;
42294;SDS011;27947;47.556;18.718;2024-03-23T14:43:22;7.30;;;3.05;;
42294;SDS011;27947;47.556;18.718;2024-03-23T14:46:07;5.03;;;2.80;;
42294;SDS011;27947;47.556;18.718;2024-03-23T14:48:33;4.63;;;2.92;;
42294;SDS011;27947;47.556;18.718;2024-03-23T14:50:58;5.13;;;3.28;;
42294;SDS011;27947;47.556;18.718;2024-03-23T14:53:29;6.45;;;3.20;;
42294;SDS011;27947;47.556;18.718;2024-03-23T14:55:58;8.45;;;2.75;;
42294;SDS011;27947;47.556;18.718;2024-03-23T14:58:25;5.65;;;3.13;;
42294;SDS011;27947;47.556;18.718;2024-03-23T15:00:50;6.18;;;3.58;;
42294;SDS011;27947;47.556;18.718;2024-03-23T15:03:16;4.18;;;2.85;;
42294;SDS011;27947;47.556;18.718;2024-03-23T15:05:42;6.33;;;2.77;;
42294;SDS011;27947;47.556;18.718;2024-03-23T15:08:07;3.80;;;2.70;;
42294;SDS011;27947;47.556;18.718;2024-03-23T15:10:33;5.93;;;3.50;;
42294;SDS011;27947;47.556;18.718;2024-03-23T15:12:58;4.72;;;2.90;;
42294;SDS011;27947;47.556;18.718;2024-03-23T15:15:23;4.72;;;2.80;;
42294;SDS011;27947;47.556;18.718;2024-03-23T15:17:48;4.15;;;3.10;;
42294;SDS011;27947;47.556;18.718;2024-03-23T15:20:15;7.38;;;3.00;;